createdAt,value
2018-12-26T00:00:58.033Z,101640.80
2018-12-26T00:06:01.903Z,101644.86
2018-12-26T00:11:05.683Z,101658.97
2018-12-26T00:16:09.410Z,101661.48
2018-12-26T00:21:13.171Z,101657.53
2018-12-26T00:26:16.905Z,101657.80
2018-12-26T00:31:20.650Z,101668.54
2018-12-26T00:36:24.390Z,101667.22
2018-12-26T00:41:28.136Z,101648.20
2018-12-26T00:46:31.969Z,101649.88
2018-12-26T00:51:35.753Z,101639.59
2018-12-26T00:56:39.565Z,101641.62
2018-12-26T01:01:43.310Z,101646.08
2018-12-26T01:06:47.028Z,101635.38
2018-12-26T01:11:50.793Z,101644.74
2018-12-26T01:16:54.566Z,101624.39
2018-12-26T01:21:58.314Z,101628.72
2018-12-26T01:27:02.048Z,101614.55
2018-12-26T01:32:05.776Z,101610.73
2018-12-26T01:37:09.625Z,101616.25
2018-12-26T01:42:13.384Z,101627.02
2018-12-26T01:47:17.243Z,101628.55
2018-12-26T01:52:21.007Z,101630.84
2018-12-26T01:57:24.756Z,101621.75
2018-12-26T02:02:28.521Z,101623.91
2018-12-26T02:07:32.476Z,101633.30
2018-12-26T02:12:36.243Z,101631.41
2018-12-26T02:17:40.002Z,101635.12
2018-12-26T02:22:43.750Z,101631.73
2018-12-26T02:27:47.510Z,101628.06
2018-12-26T02:32:51.311Z,101637.03
2018-12-26T02:37:55.114Z,101623.13
2018-12-26T02:42:58.921Z,101637.36
2018-12-26T02:48:02.649Z,101636.91
2018-12-26T02:53:06.373Z,101635.92
2018-12-26T02:58:10.117Z,101639.39
2018-12-26T03:03:13.991Z,101642.14
2018-12-26T03:08:17.738Z,101639.66
2018-12-26T03:13:21.521Z,101647.08
2018-12-26T03:18:25.363Z,101646.47
2018-12-26T03:23:29.234Z,101638.83
2018-12-26T03:28:32.979Z,101630.88
2018-12-26T03:33:36.729Z,101633.05
2018-12-26T03:38:40.467Z,101634.02
2018-12-26T03:43:44.310Z,101627.44
2018-12-26T03:48:48.061Z,101617.19
2018-12-26T03:53:51.878Z,101611.27
2018-12-26T03:58:55.693Z,101623.22
2018-12-26T04:03:59.555Z,101617.75
2018-12-26T04:09:04.118Z,101607.20
2018-12-26T04:14:07.854Z,101609.47
2018-12-26T04:19:11.634Z,101623.94
2018-12-26T04:24:15.537Z,101612.44
2018-12-26T04:29:19.374Z,101627.58
2018-12-26T04:34:23.171Z,101626.98
2018-12-26T04:39:26.912Z,101625.91
2018-12-26T04:44:30.692Z,101615.59
2018-12-26T04:49:36.499Z,101611.02
2018-12-26T04:54:40.425Z,101617.70
2018-12-26T04:59:44.185Z,101607.31
2018-12-26T05:04:47.948Z,101566.17
2018-12-26T05:09:51.943Z,101565.48
2018-12-26T05:14:55.676Z,101610.39
2018-12-26T05:19:59.656Z,101587.56
2018-12-26T05:25:03.480Z,101602.86
2018-12-26T05:30:07.499Z,101608.12
2018-12-26T05:35:11.223Z,101607.99
2018-12-26T05:40:15.064Z,101596.48
2018-12-26T05:45:18.797Z,101609.34
2018-12-26T05:50:22.540Z,101609.11
2018-12-26T05:55:26.376Z,101582.72
2018-12-26T06:00:30.274Z,101581.16
2018-12-26T06:06:29.263Z,101587.09
2018-12-26T06:11:32.985Z,101587.05
2018-12-26T06:16:36.842Z,101592.15
2018-12-26T06:21:40.574Z,101585.30
2018-12-26T06:26:44.344Z,101581.48
2018-12-26T06:31:48.114Z,101575.43
2018-12-26T06:36:51.895Z,101594.18
2018-12-26T06:41:55.630Z,101569.02
2018-12-26T06:46:59.525Z,101578.41
2018-12-26T06:52:03.306Z,101587.13
2018-12-26T06:57:07.017Z,101583.55
2018-12-26T07:02:10.748Z,101592.52
2018-12-26T07:07:14.486Z,101594.14
2018-12-26T07:12:18.219Z,101595.65
2018-12-26T07:17:22.014Z,101604.05
2018-12-26T07:22:25.757Z,101591.70
2018-12-26T07:27:29.668Z,101594.50
2018-12-26T07:32:33.463Z,101601.84
2018-12-26T07:37:37.176Z,101591.77
2018-12-26T07:42:40.924Z,101571.30
2018-12-26T07:47:44.701Z,101577.92
2018-12-26T07:52:48.492Z,101582.05
2018-12-26T07:57:52.258Z,101595.13
2018-12-26T08:02:56.015Z,101583.59
2018-12-26T08:07:59.763Z,101579.74
2018-12-26T08:13:03.522Z,101609.42
2018-12-26T08:18:07.307Z,101595.97
2018-12-26T08:23:11.032Z,101588.63
2018-12-26T08:28:14.777Z,101604.24
2018-12-26T08:33:18.526Z,101598.59
2018-12-26T08:38:22.366Z,101607.41
2018-12-26T08:43:26.121Z,101606.94
2018-12-26T08:48:29.970Z,101609.37
2018-12-26T08:53:33.718Z,101607.89
2018-12-26T08:58:37.452Z,101603.84
2018-12-26T09:03:41.250Z,101607.89
2018-12-26T09:08:45.008Z,101619.98
2018-12-26T09:13:48.752Z,101612.47
2018-12-26T09:18:52.500Z,101614.31
2018-12-26T09:23:56.249Z,101626.02
2018-12-26T09:29:00.128Z,101623.08
2018-12-26T09:34:03.845Z,101621.77
2018-12-26T09:39:08.246Z,101607.95
2018-12-26T09:44:11.986Z,101622.84
2018-12-26T09:49:15.720Z,101615.03
2018-12-26T09:54:19.547Z,101613.34
2018-12-26T09:59:23.332Z,101615.97
2018-12-26T10:04:27.180Z,101610.72
2018-12-26T10:09:30.955Z,101618.12
2018-12-26T10:14:34.748Z,101612.34
2018-12-26T10:19:41.330Z,101622.11
2018-12-26T10:24:45.161Z,101599.76
2018-12-26T10:29:48.934Z,101599.76
2018-12-26T10:34:52.683Z,101598.33
2018-12-26T10:39:56.419Z,101590.72
2018-12-26T10:45:00.179Z,101588.52
2018-12-26T10:50:04.969Z,101570.19
2018-12-26T10:55:08.699Z,101570.91
2018-12-26T11:00:13.706Z,101580.15
2018-12-26T11:05:17.442Z,101558.50
2018-12-26T11:10:21.170Z,101552.37
2018-12-26T11:15:24.941Z,101544.34
2018-12-26T11:20:28.797Z,101545.86
2018-12-26T11:25:32.538Z,101554.12
2018-12-26T11:30:36.279Z,101551.58
2018-12-26T11:35:40.003Z,101543.22
2018-12-26T11:40:43.817Z,101548.19
2018-12-26T11:45:47.561Z,101531.07
2018-12-26T11:50:51.294Z,101527.34
2018-12-26T11:55:55.028Z,101518.70
2018-12-26T12:00:58.749Z,101518.15
2018-12-26T12:06:02.539Z,101520.66
2018-12-26T12:11:06.351Z,101525.11
2018-12-26T12:16:10.091Z,101524.80
2018-12-26T12:21:13.842Z,101524.56
2018-12-26T12:26:17.580Z,101518.23
2018-12-26T12:31:21.328Z,101516.09
2018-12-26T12:36:25.124Z,101517.40
2018-12-26T12:41:28.919Z,101511.14
2018-12-26T12:46:32.735Z,101508.91
2018-12-26T12:51:36.559Z,101493.83
2018-12-26T12:56:40.294Z,101488.54
2018-12-26T13:01:44.107Z,101482.24
2018-12-26T13:06:47.870Z,101488.22
2018-12-26T13:11:51.659Z,101497.69
2018-12-26T13:16:55.384Z,101503.34
2018-12-26T13:21:59.112Z,101497.53
2018-12-26T13:27:02.874Z,101499.00
2018-12-26T13:32:06.616Z,101495.89
2018-12-26T13:37:10.372Z,101514.96
2018-12-26T13:42:14.121Z,101498.25
2018-12-26T13:47:17.920Z,101504.78
2018-12-26T13:52:21.634Z,101489.38
2018-12-26T13:57:25.454Z,101503.95
2018-12-26T14:02:30.035Z,101511.17
2018-12-26T14:07:33.768Z,101489.80
2018-12-26T14:12:37.509Z,101495.50
2018-12-26T14:17:41.242Z,101499.47
2018-12-26T14:22:45.048Z,101494.28
2018-12-26T14:27:48.802Z,101497.84
2018-12-26T14:32:52.650Z,101500.02
2018-12-26T14:37:56.359Z,101502.61
2018-12-26T14:43:00.085Z,101499.42
2018-12-26T14:48:03.877Z,101509.69
2018-12-26T14:53:07.935Z,101501.13
2018-12-26T14:58:11.676Z,101503.87
2018-12-26T15:03:15.505Z,101505.75
2018-12-26T15:08:19.339Z,101498.52
2018-12-26T15:13:23.148Z,101495.87
2018-12-26T15:18:27.017Z,101505.48
2018-12-26T15:23:30.750Z,101508.11
2018-12-26T15:28:34.492Z,101512.16
2018-12-26T15:33:38.264Z,101499.74
2018-12-26T15:38:41.983Z,101501.30
2018-12-26T15:43:45.821Z,101495.50
2018-12-26T15:48:49.533Z,101487.98
2018-12-26T15:53:53.390Z,101483.42
2018-12-26T15:58:57.159Z,101473.86
2018-12-26T16:04:00.895Z,101477.34
2018-12-26T16:09:06.700Z,101473.50
2018-12-26T16:14:10.445Z,101480.45
2018-12-26T16:19:14.191Z,101484.16
2018-12-26T16:24:17.916Z,101488.48
2018-12-26T16:29:21.662Z,101493.64
2018-12-26T16:34:25.474Z,101498.91
2018-12-26T16:39:35.715Z,101487.09
2018-12-26T16:44:34.800Z,101494.21
2018-12-26T16:49:38.559Z,101494.25
2018-12-26T16:54:42.447Z,101497.71
2018-12-26T16:59:46.207Z,101497.25
2018-12-26T17:04:49.993Z,101502.77
2018-12-26T17:09:53.876Z,101502.77
2018-12-26T17:14:57.638Z,101495.09
2018-12-26T17:20:03.792Z,101496.53
2018-12-26T17:25:07.658Z,101509.66
2018-12-26T17:31:03.791Z,101506.69
2018-12-26T17:41:07.399Z,101524.43
2018-12-26T17:46:11.154Z,101522.95
2018-12-26T17:51:18.039Z,101511.34
2018-12-26T17:56:37.376Z,101515.45
2018-12-26T18:01:59.073Z,101512.20
2018-12-26T18:07:02.796Z,101514.13
2018-12-26T18:12:11.815Z,101518.30
2018-12-26T18:17:12.001Z,101516.53
2018-12-26T18:22:15.892Z,101530.76
2018-12-26T18:27:19.630Z,101532.23
2018-12-26T18:32:23.402Z,101538.30
2018-12-26T18:37:27.191Z,101527.30
2018-12-26T18:42:30.951Z,101527.30
2018-12-26T18:47:34.679Z,101526.09
2018-12-26T18:52:38.433Z,101535.82
2018-12-26T18:57:42.173Z,101535.22
2018-12-26T19:02:45.939Z,101534.48
2018-12-26T19:07:49.661Z,101546.22
2018-12-26T19:12:53.383Z,101543.33
2018-12-26T19:17:57.116Z,101543.23
2018-12-26T19:23:00.841Z,101544.80
2018-12-26T19:28:04.581Z,101543.83
2018-12-26T19:33:08.329Z,101539.78
2018-12-26T19:38:12.062Z,101540.17
2018-12-26T19:43:15.804Z,101535.95
2018-12-26T19:48:19.604Z,101543.99
2018-12-26T19:53:23.499Z,101541.36
2018-12-26T19:58:29.189Z,101536.45
2018-12-26T20:03:32.707Z,101533.20
2018-12-26T20:08:36.451Z,101540.54
2018-12-26T20:13:40.192Z,101530.36
2018-12-26T20:18:43.937Z,101532.52
2018-12-26T20:23:47.681Z,101527.59
2018-12-26T20:28:51.448Z,101528.91
2018-12-26T20:33:55.247Z,101526.41
2018-12-26T20:38:59.089Z,101524.36
2018-12-26T20:44:02.808Z,101523.78
2018-12-26T20:49:06.554Z,101529.27
2018-12-26T20:54:10.272Z,101519.85
2018-12-26T20:59:14.032Z,101518.28
2018-12-26T21:04:17.812Z,101521.87
2018-12-26T21:09:21.667Z,101519.58
2018-12-26T21:14:25.429Z,101508.47
2018-12-26T21:19:29.188Z,101512.05
2018-12-26T21:24:32.906Z,101515.53
2018-12-26T21:29:36.628Z,101514.23
2018-12-26T21:34:40.438Z,101522.13
2018-12-26T21:39:44.507Z,101524.63
2018-12-26T21:44:48.246Z,101525.80
2018-12-26T21:49:51.985Z,101525.59
2018-12-26T21:54:55.720Z,101528.80
2018-12-26T21:59:59.435Z,101524.98
2018-12-26T22:05:03.176Z,101523.05
2018-12-26T22:10:06.949Z,101520.33
2018-12-26T22:15:10.688Z,101520.69
2018-12-26T22:20:14.418Z,101526.91
2018-12-26T22:25:18.145Z,101520.92
2018-12-26T22:30:21.877Z,101525.34
2018-12-26T22:35:25.688Z,101525.13
2018-12-26T22:40:29.417Z,101525.34
2018-12-26T22:45:33.163Z,101518.55
2018-12-26T22:50:36.967Z,101511.70
2018-12-26T22:55:40.769Z,101512.06
2018-12-26T23:00:47.000Z,101507.87
2018-12-26T23:05:50.761Z,101509.32
2018-12-26T23:10:54.546Z,101513.02
2018-12-26T23:15:58.296Z,101505.25
2018-12-26T23:21:02.169Z,101508.59
2018-12-26T23:26:07.176Z,101510.75
2018-12-26T23:31:11.031Z,101504.42
2018-12-26T23:36:14.868Z,101505.61
2018-12-26T23:41:18.623Z,101498.90
2018-12-26T23:46:22.361Z,101498.90
2018-12-26T23:51:26.177Z,101496.62
2018-12-26T23:56:29.961Z,101498.90
